Key West Naval Air Station, Florida
Current Conditions -  °F | °C
As of 11:53 AM on Thursday 30 Oct 2014 (Local Time) from KNQX Reporting Station
Scattered Clouds Scattered Clouds  
Wind Chill: 82°   Ceiling: Unl
Heat Index: 84°   Visibility: 10mi
Dew Point: 67°   Wind: 7mph
Humidity: 60%   Direction: 130°SE
Pressure: 29.98"   Gusts: NA
Location:  24.5796°N, 81.6849°W
Report Text: KNQX 301553Z 13006KT 10SM FEW025 SCT080 28/19 A2998 RMK AO2 SLP149 T02780194 $
Loading
Personal Weather Stations






























Interactive Weather Map
Tropical Storm Tracking
New forecast layout! Learn more

10-Day Weather Forecast

Advertisements
Track Severe Weather on mobile